BTK7108 WIEE-WIII
Flight info
| Callsign | BTK7108 |
|---|---|
| Flight time | 1h 31m |
| Altitude | 33000 |
| Route | BEPNO T7 TOPUK T5 BUNIK |
| Aircraft | A320/M-SDE3FGHIRWY/LB1 |
Departure
| Time | 2026-05-07 04:57 |
|---|---|
| Airport | Minangkabau International Airport (WIEE) |
Arrival
| Time | 2026-05-07 06:29 |
|---|---|
| Airport | Soekarno-Hatta International Airport (WIII) |
| Time | Latitude | Longitude | Altitude | Speed | Heading |
|---|---|---|---|---|---|
| 2026-05-07 04:42 | -0.78552 | 100.28459 | 38 ft | 0 kts | 66° |
| 2026-05-07 04:49 | -0.78556 | 100.28450 | 38 ft | 2 kts | 66° |
| 2026-05-07 04:49 | -0.78562 | 100.28436 | 38 ft | 2 kts | 66° |
| 2026-05-07 04:49 | -0.78568 | 100.28423 | 38 ft | 2 kts | 66° |
| 2026-05-07 04:50 | -0.78573 | 100.28413 | 38 ft | 0 kts | 66° |
| 2026-05-07 04:50 | -0.78580 | 100.28401 | 38 ft | 2 kts | 32° |
| 2026-05-07 04:50 | -0.78595 | 100.28397 | 38 ft | 2 kts | 356° |
| 2026-05-07 04:50 | -0.78603 | 100.28398 | 38 ft | 1 kts | 335° |
| 2026-05-07 04:51 | -0.78608 | 100.28401 | 38 ft | 0 kts | 336° |
| 2026-05-07 04:52 | -0.78608 | 100.28400 | 38 ft | 0 kts | 336° |
| 2026-05-07 04:53 | -0.78601 | 100.28397 | 38 ft | 1 kts | 336° |
| 2026-05-07 04:53 | -0.78579 | 100.28388 | 38 ft | 6 kts | 336° |
| 2026-05-07 04:53 | -0.78523 | 100.28362 | 38 ft | 11 kts | 334° |
| 2026-05-07 04:53 | -0.78478 | 100.28291 | 40 ft | 14 kts | 258° |
| 2026-05-07 04:54 | -0.78525 | 100.28185 | 41 ft | 18 kts | 244° |
| 2026-05-07 04:54 | -0.78575 | 100.28056 | 41 ft | 20 kts | 279° |
| 2026-05-07 04:54 | -0.78457 | 100.27979 | 45 ft | 22 kts | 335° |
| 2026-05-07 04:54 | -0.78307 | 100.27909 | 46 ft | 24 kts | 333° |
| 2026-05-07 04:55 | -0.78143 | 100.27832 | 48 ft | 27 kts | 334° |
| 2026-05-07 04:55 | -0.77964 | 100.27749 | 52 ft | 29 kts | 335° |
| 2026-05-07 04:55 | -0.77768 | 100.27659 | 54 ft | 32 kts | 336° |
| 2026-05-07 04:55 | -0.77600 | 100.27621 | 54 ft | 17 kts | 357° |
| 2026-05-07 04:56 | -0.77588 | 100.27575 | 53 ft | 11 kts | 171° |
| 2026-05-07 04:56 | -0.77659 | 100.27607 | 54 ft | 10 kts | 157° |
| 2026-05-07 04:56 | -0.77749 | 100.27646 | 54 ft | 32 kts | 151° |
| 2026-05-07 04:56 | -0.78164 | 100.27839 | 48 ft | 98 kts | 155° |
| 2026-05-07 04:57 | -0.78971 | 100.28214 | 36 ft | 153 kts | 156° |
| 2026-05-07 04:57 | -0.79999 | 100.28675 | 335 ft | 167 kts | 161° |
| 2026-05-07 04:57 | -0.81147 | 100.28883 | 834 ft | 172 kts | 179° |
| 2026-05-07 04:57 | -0.82339 | 100.28916 | 1431 ft | 174 kts | 179° |
| 2026-05-07 04:58 | -0.83548 | 100.28995 | 1963 ft | 177 kts | 176° |
| 2026-05-07 04:58 | -0.84820 | 100.29147 | 2261 ft | 193 kts | 173° |
| 2026-05-07 04:58 | -0.86208 | 100.29370 | 2561 ft | 209 kts | 172° |
| 2026-05-07 04:58 | -0.87718 | 100.29647 | 2840 ft | 230 kts | 170° |
| 2026-05-07 04:59 | -0.89338 | 100.29966 | 3311 ft | 242 kts | 169° |
| 2026-05-07 04:59 | -0.90946 | 100.30295 | 3975 ft | 246 kts | 170° |
| 2026-05-07 04:59 | -0.92616 | 100.30638 | 4652 ft | 250 kts | 170° |
| 2026-05-07 04:59 | -0.94268 | 100.30978 | 5374 ft | 251 kts | 170° |
| 2026-05-07 05:00 | -0.95978 | 100.31329 | 6107 ft | 254 kts | 170° |
| 2026-05-07 05:00 | -0.97705 | 100.31686 | 6822 ft | 258 kts | 170° |
| 2026-05-07 05:00 | -0.99469 | 100.32004 | 7428 ft | 266 kts | 173° |
| 2026-05-07 05:00 | -1.01361 | 100.32285 | 7877 ft | 282 kts | 173° |
| 2026-05-07 05:01 | -1.03306 | 100.32567 | 8580 ft | 287 kts | 173° |
| 2026-05-07 05:01 | -1.05296 | 100.32861 | 9326 ft | 291 kts | 173° |
| 2026-05-07 05:01 | -1.07296 | 100.33160 | 10080 ft | 294 kts | 173° |
| 2026-05-07 05:01 | -1.09326 | 100.33580 | 10583 ft | 308 kts | 160° |
| 2026-05-07 05:02 | -1.11183 | 100.34749 | 10889 ft | 329 kts | 135° |
| 2026-05-07 05:02 | -1.12438 | 100.36680 | 11185 ft | 348 kts | 110° |
| 2026-05-07 05:02 | -1.13061 | 100.39095 | 11531 ft | 364 kts | 102° |
| 2026-05-07 05:02 | -1.13583 | 100.41618 | 11823 ft | 379 kts | 102° |
| 2026-05-07 05:03 | -1.14118 | 100.44218 | 12329 ft | 387 kts | 102° |
| 2026-05-07 05:03 | -1.14675 | 100.46853 | 13009 ft | 390 kts | 103° |
| 2026-05-07 05:03 | -1.15245 | 100.49495 | 13669 ft | 393 kts | 103° |
| 2026-05-07 05:03 | -1.15836 | 100.52189 | 14312 ft | 396 kts | 103° |
| 2026-05-07 05:04 | -1.16428 | 100.54865 | 14940 ft | 399 kts | 103° |
| 2026-05-07 05:04 | -1.17034 | 100.57593 | 15569 ft | 402 kts | 103° |
| 2026-05-07 05:04 | -1.17633 | 100.60282 | 16173 ft | 405 kts | 103° |
| 2026-05-07 05:04 | -1.18248 | 100.63042 | 16782 ft | 407 kts | 103° |
| 2026-05-07 05:05 | -1.18865 | 100.65809 | 17378 ft | 410 kts | 103° |
| 2026-05-07 05:05 | -1.19483 | 100.68590 | 17962 ft | 413 kts | 103° |
| 2026-05-07 05:05 | -1.20105 | 100.71397 | 18540 ft | 416 kts | 103° |
| 2026-05-07 05:05 | -1.20732 | 100.74216 | 19106 ft | 418 kts | 104° |
| 2026-05-07 05:06 | -1.21366 | 100.77068 | 19663 ft | 421 kts | 104° |
| 2026-05-07 05:06 | -1.22000 | 100.79916 | 20204 ft | 424 kts | 104° |
| 2026-05-07 05:06 | -1.22643 | 100.82800 | 20736 ft | 426 kts | 104° |
| 2026-05-07 05:06 | -1.23293 | 100.85715 | 21256 ft | 429 kts | 104° |
| 2026-05-07 05:07 | -1.23941 | 100.88622 | 21754 ft | 431 kts | 104° |
| 2026-05-07 05:07 | -1.24591 | 100.91545 | 22242 ft | 433 kts | 104° |
| 2026-05-07 05:07 | -1.25245 | 100.94504 | 22720 ft | 436 kts | 104° |
| 2026-05-07 05:07 | -1.25903 | 100.97477 | 23184 ft | 438 kts | 103° |
| 2026-05-07 05:08 | -1.26531 | 101.00321 | 23617 ft | 440 kts | 103° |
| 2026-05-07 05:08 | -1.27200 | 101.03348 | 24060 ft | 442 kts | 103° |
| 2026-05-07 05:08 | -1.27856 | 101.06322 | 24475 ft | 444 kts | 103° |
| 2026-05-07 05:08 | -1.28531 | 101.09380 | 24884 ft | 447 kts | 103° |
| 2026-05-07 05:09 | -1.29199 | 101.12405 | 25271 ft | 449 kts | 103° |
| 2026-05-07 05:09 | -1.29866 | 101.15425 | 25645 ft | 451 kts | 103° |
| 2026-05-07 05:09 | -1.30551 | 101.18532 | 26008 ft | 453 kts | 103° |
| 2026-05-07 05:09 | -1.31227 | 101.21596 | 26352 ft | 454 kts | 103° |
| 2026-05-07 05:10 | -1.31905 | 101.24672 | 26661 ft | 457 kts | 103° |
| 2026-05-07 05:10 | -1.32597 | 101.27814 | 26813 ft | 462 kts | 103° |
| 2026-05-07 05:10 | -1.33287 | 101.30945 | 27044 ft | 465 kts | 103° |
| 2026-05-07 05:10 | -1.33982 | 101.34100 | 27429 ft | 464 kts | 103° |
| 2026-05-07 05:11 | -1.34673 | 101.37237 | 27856 ft | 461 kts | 103° |
| 2026-05-07 05:11 | -1.35387 | 101.40308 | 28254 ft | 460 kts | 105° |
| 2026-05-07 05:11 | -1.36295 | 101.43401 | 28643 ft | 458 kts | 109° |
| 2026-05-07 05:11 | -1.37379 | 101.46375 | 29015 ft | 457 kts | 112° |
| 2026-05-07 05:12 | -1.38650 | 101.49271 | 29386 ft | 455 kts | 116° |
| 2026-05-07 05:12 | -1.40033 | 101.52102 | 29751 ft | 454 kts | 116° |
| 2026-05-07 05:12 | -1.41431 | 101.54918 | 30108 ft | 453 kts | 117° |
| 2026-05-07 05:12 | -1.42842 | 101.57755 | 30462 ft | 452 kts | 116° |
| 2026-05-07 05:13 | -1.44222 | 101.60534 | 30804 ft | 451 kts | 116° |
| 2026-05-07 05:13 | -1.45620 | 101.63355 | 31136 ft | 450 kts | 116° |
| 2026-05-07 05:13 | -1.47012 | 101.66170 | 31416 ft | 451 kts | 116° |
| 2026-05-07 05:13 | -1.48379 | 101.68948 | 31653 ft | 452 kts | 116° |
| 2026-05-07 05:14 | -1.49775 | 101.71788 | 31876 ft | 453 kts | 116° |
| 2026-05-07 05:14 | -1.51162 | 101.74607 | 32094 ft | 454 kts | 116° |
| 2026-05-07 05:14 | -1.52566 | 101.77456 | 32312 ft | 454 kts | 116° |
| 2026-05-07 05:14 | -1.53955 | 101.80273 | 32516 ft | 455 kts | 116° |
| 2026-05-07 05:15 | -1.55362 | 101.83122 | 32712 ft | 456 kts | 116° |
| 2026-05-07 05:15 | -1.56766 | 101.85967 | 32831 ft | 457 kts | 116° |
| 2026-05-07 05:15 | -1.59565 | 101.91636 | 32840 ft | 458 kts | 116° |
| 2026-05-07 05:16 | -1.62380 | 101.97339 | 32844 ft | 457 kts | 116° |
| 2026-05-07 05:16 | -1.65213 | 102.03077 | 32845 ft | 457 kts | 116° |
| 2026-05-07 05:17 | -1.68010 | 102.08746 | 32845 ft | 457 kts | 116° |
| 2026-05-07 05:17 | -1.70834 | 102.14468 | 32845 ft | 457 kts | 116° |
| 2026-05-07 05:18 | -1.73641 | 102.20158 | 32845 ft | 457 kts | 116° |
| 2026-05-07 05:18 | -1.76453 | 102.25861 | 32845 ft | 458 kts | 116° |
| 2026-05-07 05:19 | -1.79260 | 102.31548 | 32845 ft | 458 kts | 116° |
| 2026-05-07 05:19 | -1.82076 | 102.37243 | 32844 ft | 458 kts | 116° |
| 2026-05-07 05:20 | -1.84895 | 102.42949 | 32841 ft | 457 kts | 116° |
| 2026-05-07 05:20 | -1.87710 | 102.48650 | 32836 ft | 457 kts | 116° |
| 2026-05-07 05:21 | -1.91944 | 102.57232 | 32827 ft | 458 kts | 116° |
| 2026-05-07 05:22 | -1.94743 | 102.62905 | 32822 ft | 458 kts | 116° |
| 2026-05-07 05:22 | -1.97569 | 102.68648 | 32820 ft | 458 kts | 116° |
| 2026-05-07 05:23 | -2.00365 | 102.74342 | 32819 ft | 458 kts | 116° |
| 2026-05-07 05:23 | -2.03179 | 102.80057 | 32818 ft | 458 kts | 116° |
| 2026-05-07 05:24 | -2.05990 | 102.85761 | 32818 ft | 458 kts | 116° |
| 2026-05-07 05:24 | -2.08819 | 102.91499 | 32818 ft | 458 kts | 116° |
| 2026-05-07 05:25 | -2.11645 | 102.97206 | 32818 ft | 458 kts | 116° |
| 2026-05-07 05:25 | -2.14484 | 103.02909 | 32818 ft | 458 kts | 116° |
| 2026-05-07 05:26 | -2.17313 | 103.08628 | 32818 ft | 457 kts | 116° |
| 2026-05-07 05:26 | -2.20130 | 103.14339 | 32818 ft | 457 kts | 115° |
| 2026-05-07 05:27 | -2.22949 | 103.20052 | 32818 ft | 459 kts | 115° |
| 2026-05-07 05:27 | -2.25770 | 103.25787 | 32818 ft | 459 kts | 115° |
| 2026-05-07 05:28 | -2.28605 | 103.31554 | 32818 ft | 459 kts | 115° |
| 2026-05-07 05:28 | -2.31417 | 103.37275 | 32818 ft | 459 kts | 115° |
| 2026-05-07 05:29 | -2.34236 | 103.42987 | 32818 ft | 459 kts | 115° |
| 2026-05-07 05:29 | -2.37086 | 103.48718 | 32818 ft | 459 kts | 115° |
| 2026-05-07 05:30 | -2.39926 | 103.54441 | 32818 ft | 459 kts | 115° |
| 2026-05-07 05:30 | -2.42769 | 103.60182 | 32818 ft | 459 kts | 115° |
| 2026-05-07 05:31 | -2.45612 | 103.65928 | 32819 ft | 459 kts | 115° |
| 2026-05-07 05:31 | -2.48426 | 103.71645 | 32818 ft | 459 kts | 115° |
| 2026-05-07 05:32 | -2.51261 | 103.77396 | 32818 ft | 459 kts | 115° |
| 2026-05-07 05:32 | -2.54082 | 103.83109 | 32818 ft | 459 kts | 115° |
| 2026-05-07 05:33 | -2.56920 | 103.88852 | 32818 ft | 459 kts | 115° |
| 2026-05-07 05:33 | -2.59756 | 103.94589 | 32818 ft | 459 kts | 115° |
| 2026-05-07 05:34 | -2.62533 | 104.00211 | 32818 ft | 459 kts | 115° |
| 2026-05-07 05:34 | -2.65355 | 104.05923 | 32818 ft | 459 kts | 115° |
| 2026-05-07 05:35 | -2.68185 | 104.11653 | 32818 ft | 459 kts | 115° |
| 2026-05-07 05:35 | -2.70994 | 104.17339 | 32818 ft | 459 kts | 115° |
| 2026-05-07 05:36 | -2.73830 | 104.23082 | 32822 ft | 459 kts | 115° |
| 2026-05-07 05:36 | -2.76664 | 104.28820 | 32820 ft | 459 kts | 115° |
| 2026-05-07 05:37 | -2.79475 | 104.34513 | 32819 ft | 459 kts | 115° |
| 2026-05-07 05:37 | -2.82306 | 104.40247 | 32818 ft | 459 kts | 115° |
| 2026-05-07 05:38 | -2.85130 | 104.45968 | 32818 ft | 459 kts | 115° |
| 2026-05-07 05:38 | -2.87952 | 104.51685 | 32818 ft | 459 kts | 115° |
| 2026-05-07 05:39 | -2.90779 | 104.57413 | 32818 ft | 459 kts | 115° |
| 2026-05-07 05:39 | -2.93603 | 104.63135 | 32818 ft | 460 kts | 115° |
| 2026-05-07 05:40 | -2.96430 | 104.68881 | 32818 ft | 460 kts | 115° |
| 2026-05-07 05:40 | -2.99257 | 104.74636 | 32818 ft | 460 kts | 115° |
| 2026-05-07 05:41 | -3.02076 | 104.80361 | 32818 ft | 461 kts | 115° |
| 2026-05-07 05:41 | -3.04916 | 104.86123 | 32818 ft | 461 kts | 115° |
| 2026-05-07 05:42 | -3.07757 | 104.91885 | 32818 ft | 461 kts | 115° |
| 2026-05-07 05:42 | -3.10597 | 104.97646 | 32818 ft | 461 kts | 115° |
| 2026-05-07 05:43 | -3.13444 | 105.03374 | 32819 ft | 459 kts | 116° |
| 2026-05-07 05:43 | -3.16275 | 105.09100 | 32818 ft | 458 kts | 116° |
| 2026-05-07 05:44 | -3.19098 | 105.14836 | 32818 ft | 458 kts | 116° |
| 2026-05-07 05:44 | -3.21983 | 105.20546 | 32818 ft | 459 kts | 118° |
| 2026-05-07 05:45 | -3.25430 | 105.25920 | 32817 ft | 459 kts | 126° |
| 2026-05-07 05:45 | -3.29529 | 105.30821 | 32817 ft | 460 kts | 133° |
| 2026-05-07 05:46 | -3.34227 | 105.35189 | 32818 ft | 461 kts | 139° |
| 2026-05-07 05:46 | -3.39138 | 105.39292 | 32818 ft | 461 kts | 139° |
| 2026-05-07 05:47 | -3.44076 | 105.43407 | 32818 ft | 461 kts | 139° |
| 2026-05-07 05:47 | -3.48979 | 105.47504 | 32818 ft | 461 kts | 139° |
| 2026-05-07 05:48 | -3.53892 | 105.51614 | 32818 ft | 461 kts | 139° |
| 2026-05-07 05:48 | -3.58837 | 105.55745 | 32818 ft | 461 kts | 139° |
| 2026-05-07 05:49 | -3.63736 | 105.59821 | 32818 ft | 461 kts | 139° |
| 2026-05-07 05:49 | -3.68688 | 105.63947 | 32818 ft | 461 kts | 139° |
| 2026-05-07 05:50 | -3.73590 | 105.68053 | 32819 ft | 461 kts | 139° |
| 2026-05-07 05:50 | -3.78488 | 105.72170 | 32818 ft | 461 kts | 139° |
| 2026-05-07 05:51 | -3.83404 | 105.76288 | 32818 ft | 461 kts | 139° |
| 2026-05-07 05:51 | -3.88308 | 105.80389 | 32818 ft | 461 kts | 139° |
| 2026-05-07 05:52 | -3.93224 | 105.84499 | 32818 ft | 461 kts | 139° |
| 2026-05-07 05:52 | -3.98130 | 105.88600 | 32818 ft | 461 kts | 139° |
| 2026-05-07 05:53 | -4.03055 | 105.92718 | 32818 ft | 461 kts | 139° |
| 2026-05-07 05:53 | -4.07957 | 105.96818 | 32818 ft | 461 kts | 139° |
| 2026-05-07 05:54 | -4.12706 | 106.00781 | 32818 ft | 461 kts | 139° |
| 2026-05-07 05:54 | -4.17624 | 106.04870 | 32819 ft | 461 kts | 139° |
| 2026-05-07 05:55 | -4.22553 | 106.08984 | 32832 ft | 461 kts | 139° |
| 2026-05-07 05:55 | -4.27468 | 106.13092 | 32868 ft | 460 kts | 139° |
| 2026-05-07 05:56 | -4.32374 | 106.17198 | 32916 ft | 459 kts | 139° |
| 2026-05-07 05:56 | -4.37164 | 106.21208 | 32955 ft | 458 kts | 139° |
| 2026-05-07 05:57 | -4.42065 | 106.25312 | 32975 ft | 458 kts | 139° |
| 2026-05-07 05:57 | -4.46935 | 106.29391 | 32984 ft | 458 kts | 139° |
| 2026-05-07 05:58 | -4.51837 | 106.33498 | 32987 ft | 458 kts | 139° |
| 2026-05-07 05:58 | -4.56692 | 106.37566 | 32988 ft | 458 kts | 139° |
| 2026-05-07 05:59 | -4.61602 | 106.41682 | 32988 ft | 458 kts | 139° |
| 2026-05-07 05:59 | -4.66463 | 106.45758 | 32988 ft | 458 kts | 139° |
| 2026-05-07 06:00 | -4.71337 | 106.49848 | 32988 ft | 458 kts | 139° |
| 2026-05-07 06:00 | -4.76219 | 106.53948 | 32988 ft | 458 kts | 139° |
| 2026-05-07 06:01 | -4.81122 | 106.58041 | 32742 ft | 459 kts | 140° |
| 2026-05-07 06:01 | -4.83670 | 106.59972 | 32222 ft | 457 kts | 143° |
| 2026-05-07 06:01 | -4.86283 | 106.61736 | 31568 ft | 455 kts | 147° |
| 2026-05-07 06:01 | -4.88989 | 106.63351 | 30841 ft | 454 kts | 150° |
| 2026-05-07 06:02 | -4.91788 | 106.64819 | 30070 ft | 455 kts | 153° |
| 2026-05-07 06:02 | -4.94611 | 106.66148 | 29286 ft | 456 kts | 154° |
| 2026-05-07 06:02 | -4.97499 | 106.67483 | 28485 ft | 456 kts | 154° |
| 2026-05-07 06:02 | -5.00366 | 106.68799 | 27676 ft | 457 kts | 154° |
| 2026-05-07 06:03 | -5.03247 | 106.70117 | 26792 ft | 459 kts | 154° |
| 2026-05-07 06:03 | -5.06116 | 106.71429 | 26164 ft | 454 kts | 154° |
| 2026-05-07 06:03 | -5.08962 | 106.72728 | 25841 ft | 442 kts | 154° |
| 2026-05-07 06:03 | -5.11721 | 106.73986 | 25649 ft | 428 kts | 154° |
| 2026-05-07 06:04 | -5.14399 | 106.75204 | 25450 ft | 416 kts | 154° |
| 2026-05-07 06:04 | -5.16949 | 106.76366 | 25289 ft | 403 kts | 154° |
| 2026-05-07 06:04 | -5.19503 | 106.77526 | 24965 ft | 395 kts | 154° |
| 2026-05-07 06:04 | -5.21961 | 106.78637 | 24643 ft | 388 kts | 154° |
| 2026-05-07 06:05 | -5.24414 | 106.79745 | 24264 ft | 383 kts | 154° |
| 2026-05-07 06:05 | -5.26821 | 106.80835 | 23898 ft | 378 kts | 154° |
| 2026-05-07 06:05 | -5.29181 | 106.81904 | 23542 ft | 372 kts | 154° |
| 2026-05-07 06:05 | -5.31515 | 106.82961 | 23194 ft | 367 kts | 154° |
| 2026-05-07 06:06 | -5.33845 | 106.84018 | 22848 ft | 362 kts | 154° |
| 2026-05-07 06:06 | -5.36128 | 106.85054 | 22511 ft | 357 kts | 154° |
| 2026-05-07 06:06 | -5.38370 | 106.86071 | 22180 ft | 352 kts | 154° |
| 2026-05-07 06:06 | -5.40553 | 106.87061 | 21854 ft | 347 kts | 154° |
| 2026-05-07 06:07 | -5.42738 | 106.88052 | 21523 ft | 343 kts | 154° |
| 2026-05-07 06:07 | -5.44896 | 106.89026 | 21194 ft | 338 kts | 156° |
| 2026-05-07 06:07 | -5.47147 | 106.89602 | 20993 ft | 332 kts | 176° |
| 2026-05-07 06:07 | -5.49447 | 106.89369 | 20570 ft | 334 kts | 196° |
| 2026-05-07 06:08 | -5.51624 | 106.88585 | 20102 ft | 336 kts | 200° |
| 2026-05-07 06:08 | -5.53790 | 106.87716 | 19650 ft | 337 kts | 201° |
| 2026-05-07 06:08 | -5.55961 | 106.86842 | 19209 ft | 336 kts | 201° |
| 2026-05-07 06:08 | -5.58106 | 106.85992 | 18780 ft | 336 kts | 200° |
| 2026-05-07 06:09 | -5.60277 | 106.85142 | 18348 ft | 335 kts | 200° |
| 2026-05-07 06:09 | -5.62440 | 106.84300 | 17921 ft | 334 kts | 200° |
| 2026-05-07 06:09 | -5.64611 | 106.83460 | 17490 ft | 332 kts | 200° |
| 2026-05-07 06:09 | -5.66755 | 106.82632 | 17048 ft | 332 kts | 200° |
| 2026-05-07 06:10 | -5.68903 | 106.81805 | 16587 ft | 332 kts | 200° |
| 2026-05-07 06:10 | -5.71076 | 106.80967 | 16123 ft | 332 kts | 200° |
| 2026-05-07 06:10 | -5.73208 | 106.80145 | 15675 ft | 331 kts | 200° |
| 2026-05-07 06:10 | -5.75343 | 106.79322 | 15233 ft | 330 kts | 200° |
| 2026-05-07 06:11 | -5.77475 | 106.78500 | 14796 ft | 328 kts | 200° |
| 2026-05-07 06:11 | -5.79602 | 106.77680 | 14364 ft | 327 kts | 200° |
| 2026-05-07 06:11 | -5.81705 | 106.76869 | 13939 ft | 325 kts | 200° |
| 2026-05-07 06:11 | -5.83813 | 106.76056 | 13515 ft | 324 kts | 200° |
| 2026-05-07 06:12 | -5.85858 | 106.75101 | 13048 ft | 323 kts | 216° |
| 2026-05-07 06:12 | -5.87300 | 106.73457 | 12710 ft | 317 kts | 243° |
| 2026-05-07 06:12 | -5.87589 | 106.72852 | 12624 ft | 315 kts | 246° |
| 2026-05-07 06:12 | -5.88399 | 106.70820 | 12224 ft | 313 kts | 249° |
| 2026-05-07 06:13 | -5.89151 | 106.68813 | 11849 ft | 311 kts | 249° |
| 2026-05-07 06:13 | -5.89923 | 106.66786 | 11479 ft | 308 kts | 249° |
| 2026-05-07 06:13 | -5.90697 | 106.64805 | 11118 ft | 306 kts | 248° |
| 2026-05-07 06:13 | -5.91478 | 106.62832 | 10761 ft | 303 kts | 248° |
| 2026-05-07 06:14 | -5.92251 | 106.60895 | 10491 ft | 297 kts | 248° |
| 2026-05-07 06:14 | -5.93018 | 106.58976 | 10115 ft | 296 kts | 248° |
| 2026-05-07 06:14 | -5.93785 | 106.57069 | 9823 ft | 291 kts | 248° |
| 2026-05-07 06:14 | -5.94547 | 106.55193 | 9597 ft | 284 kts | 248° |
| 2026-05-07 06:15 | -5.95286 | 106.53380 | 9377 ft | 278 kts | 248° |
| 2026-05-07 06:15 | -5.96013 | 106.51599 | 9163 ft | 273 kts | 248° |
| 2026-05-07 06:15 | -5.96719 | 106.49868 | 8953 ft | 268 kts | 248° |
| 2026-05-07 06:15 | -5.97421 | 106.48150 | 8747 ft | 264 kts | 248° |
| 2026-05-07 06:16 | -5.98120 | 106.46440 | 8540 ft | 262 kts | 248° |
| 2026-05-07 06:16 | -5.98810 | 106.44747 | 8336 ft | 261 kts | 248° |
| 2026-05-07 06:16 | -5.99425 | 106.43240 | 8154 ft | 260 kts | 248° |
| 2026-05-07 06:16 | -5.99713 | 106.42535 | 8067 ft | 258 kts | 248° |
| 2026-05-07 06:17 | -6.00387 | 106.40884 | 7866 ft | 254 kts | 248° |
| 2026-05-07 06:17 | -6.01049 | 106.39262 | 7671 ft | 253 kts | 248° |
| 2026-05-07 06:17 | -6.01721 | 106.37613 | 7472 ft | 253 kts | 248° |
| 2026-05-07 06:17 | -6.02381 | 106.35991 | 7275 ft | 252 kts | 248° |
| 2026-05-07 06:18 | -6.03043 | 106.34364 | 7079 ft | 252 kts | 248° |
| 2026-05-07 06:18 | -6.03640 | 106.32970 | 6960 ft | 251 kts | 239° |
| 2026-05-07 06:18 | -6.04269 | 106.32147 | 6961 ft | 250 kts | 218° |
| 2026-05-07 06:19 | -6.06790 | 106.31464 | 6800 ft | 250 kts | 171° |
| 2026-05-07 06:19 | -6.08906 | 106.31894 | 6410 ft | 247 kts | 165° |
| 2026-05-07 06:19 | -6.13062 | 106.32802 | 5745 ft | 244 kts | 167° |
| 2026-05-07 06:20 | -6.13675 | 106.32919 | 5643 ft | 244 kts | 167° |
| 2026-05-07 06:20 | -6.15344 | 106.33225 | 5380 ft | 243 kts | 168° |
| 2026-05-07 06:20 | -6.16981 | 106.33518 | 5137 ft | 242 kts | 167° |
| 2026-05-07 06:20 | -6.18646 | 106.33813 | 5004 ft | 241 kts | 168° |
| 2026-05-07 06:21 | -6.20269 | 106.34216 | 4947 ft | 239 kts | 151° |
| 2026-05-07 06:21 | -6.21478 | 106.35300 | 4618 ft | 232 kts | 122° |
| 2026-05-07 06:21 | -6.22300 | 106.36668 | 4361 ft | 227 kts | 117° |
| 2026-05-07 06:21 | -6.23056 | 106.38037 | 4104 ft | 224 kts | 117° |
| 2026-05-07 06:22 | -6.23718 | 106.39434 | 3913 ft | 213 kts | 98° |
| 2026-05-07 06:22 | -6.23215 | 106.42081 | 4064 ft | 174 kts | 69° |
| 2026-05-07 06:22 | -6.22789 | 106.43117 | 4036 ft | 148 kts | 66° |
| 2026-05-07 06:23 | -6.22397 | 106.44046 | 4027 ft | 145 kts | 68° |
| 2026-05-07 06:23 | -6.22006 | 106.44985 | 4014 ft | 144 kts | 68° |
| 2026-05-07 06:23 | -6.21622 | 106.45922 | 3847 ft | 144 kts | 67° |
| 2026-05-07 06:23 | -6.21248 | 106.46844 | 3663 ft | 143 kts | 68° |
| 2026-05-07 06:24 | -6.20871 | 106.47776 | 3473 ft | 143 kts | 68° |
| 2026-05-07 06:24 | -6.20500 | 106.48705 | 3280 ft | 142 kts | 67° |
| 2026-05-07 06:24 | -6.20133 | 106.49625 | 3090 ft | 142 kts | 66° |
| 2026-05-07 06:24 | -6.19767 | 106.50541 | 2908 ft | 142 kts | 68° |
| 2026-05-07 06:25 | -6.19402 | 106.51461 | 2719 ft | 141 kts | 68° |
| 2026-05-07 06:25 | -6.19037 | 106.52378 | 2531 ft | 141 kts | 67° |
| 2026-05-07 06:25 | -6.18672 | 106.53300 | 2338 ft | 140 kts | 66° |
| 2026-05-07 06:25 | -6.18310 | 106.54206 | 2155 ft | 140 kts | 67° |
| 2026-05-07 06:26 | -6.17949 | 106.55108 | 1973 ft | 139 kts | 69° |
| 2026-05-07 06:26 | -6.17589 | 106.56014 | 1788 ft | 139 kts | 66° |
| 2026-05-07 06:26 | -6.17236 | 106.56899 | 1603 ft | 139 kts | 66° |
| 2026-05-07 06:26 | -6.16878 | 106.57791 | 1424 ft | 138 kts | 67° |
| 2026-05-07 06:27 | -6.16527 | 106.58674 | 1242 ft | 138 kts | 67° |
| 2026-05-07 06:27 | -6.16177 | 106.59553 | 1060 ft | 137 kts | 65° |
| 2026-05-07 06:27 | -6.15826 | 106.60432 | 884 ft | 137 kts | 66° |
| 2026-05-07 06:27 | -6.15482 | 106.61290 | 707 ft | 137 kts | 69° |
| 2026-05-07 06:28 | -6.15139 | 106.62154 | 531 ft | 136 kts | 67° |
| 2026-05-07 06:28 | -6.14795 | 106.63020 | 357 ft | 135 kts | 67° |
| 2026-05-07 06:28 | -6.14459 | 106.63879 | 176 ft | 132 kts | 66° |
| 2026-05-07 06:28 | -6.14120 | 106.64711 | 44 ft | 121 kts | 65° |
| 2026-05-07 06:29 | -6.13859 | 106.65337 | 43 ft | 79 kts | 70° |
| 2026-05-07 06:29 | -6.13712 | 106.65728 | 43 ft | 45 kts | 68° |
| 2026-05-07 06:29 | -6.13614 | 106.65978 | 43 ft | 33 kts | 68° |
| 2026-05-07 06:29 | -6.13524 | 106.66160 | 43 ft | 23 kts | 58° |
| 2026-05-07 06:30 | -6.13425 | 106.66263 | 43 ft | 19 kts | 39° |
| 2026-05-07 06:30 | -6.13314 | 106.66293 | 43 ft | 15 kts | 309° |
| 2026-05-07 06:30 | -6.13332 | 106.66184 | 43 ft | 16 kts | 248° |
| 2026-05-07 06:30 | -6.13373 | 106.66079 | 43 ft | 16 kts | 249° |
| 2026-05-07 06:31 | -6.13414 | 106.65971 | 43 ft | 16 kts | 249° |
| 2026-05-07 06:31 | -6.13458 | 106.65865 | 43 ft | 16 kts | 247° |
| 2026-05-07 06:31 | -6.13501 | 106.65757 | 43 ft | 16 kts | 248° |
| 2026-05-07 06:31 | -6.13543 | 106.65649 | 43 ft | 16 kts | 248° |
| 2026-05-07 06:32 | -6.13586 | 106.65540 | 43 ft | 16 kts | 248° |
| 2026-05-07 06:32 | -6.13628 | 106.65432 | 43 ft | 16 kts | 249° |
| 2026-05-07 06:32 | -6.13670 | 106.65330 | 43 ft | 15 kts | 248° |
| 2026-05-07 06:32 | -6.13708 | 106.65234 | 43 ft | 14 kts | 248° |
| 2026-05-07 06:33 | -6.13743 | 106.65144 | 43 ft | 13 kts | 249° |
| 2026-05-07 06:33 | -6.13746 | 106.65063 | 43 ft | 11 kts | 324° |
| 2026-05-07 06:33 | -6.13674 | 106.65031 | 43 ft | 11 kts | 339° |
| 2026-05-07 06:33 | -6.13598 | 106.65001 | 43 ft | 11 kts | 338° |
| 2026-05-07 06:34 | -6.13523 | 106.64972 | 43 ft | 11 kts | 338° |
| 2026-05-07 06:34 | -6.13448 | 106.64942 | 43 ft | 11 kts | 339° |
| 2026-05-07 06:34 | -6.13373 | 106.64912 | 43 ft | 11 kts | 337° |
| 2026-05-07 06:34 | -6.13294 | 106.64880 | 43 ft | 13 kts | 340° |
| 2026-05-07 06:35 | -6.13199 | 106.64843 | 43 ft | 15 kts | 337° |
| 2026-05-07 06:35 | -6.13090 | 106.64799 | 43 ft | 17 kts | 335° |
| 2026-05-07 06:35 | -6.12968 | 106.64751 | 43 ft | 19 kts | 338° |
| 2026-05-07 06:35 | -6.12832 | 106.64697 | 43 ft | 21 kts | 339° |
| 2026-05-07 06:36 | -6.12700 | 106.64671 | 43 ft | 17 kts | 38° |
| 2026-05-07 06:36 | -6.12649 | 106.64786 | 43 ft | 19 kts | 73° |
| 2026-05-07 06:36 | -6.12566 | 106.64865 | 43 ft | 18 kts | 342° |
| 2026-05-07 06:36 | -6.12443 | 106.64812 | 43 ft | 17 kts | 332° |
| 2026-05-07 06:37 | -6.12334 | 106.64777 | 43 ft | 16 kts | 342° |
| 2026-05-07 06:37 | -6.12229 | 106.64783 | 43 ft | 14 kts | 33° |
| 2026-05-07 06:37 | -6.12190 | 106.64856 | 43 ft | 12 kts | 131° |
| 2026-05-07 06:37 | -6.12233 | 106.64905 | 43 ft | 3 kts | 123° |
| 2026-05-07 06:38 | -6.12235 | 106.64906 | 43 ft | 0 kts | 125° |
| 2026-05-07 06:38 | -6.12239 | 106.64910 | 43 ft | 0 kts | 142° |
| 2026-05-07 06:38 | -6.12244 | 106.64913 | 43 ft | 2 kts | 153° |
| 2026-05-07 06:38 | -6.12250 | 106.64916 | 43 ft | 0 kts | 150° |